logo
Search for airport 
image banner adimage banner adimage banner ad
image banner ad

PKC51 - Kili

Located in Kili Island, Marshall Islands

ICAO - , IATA -

Data provided by Airmate  

General information

Coordinates: N5°39'0" E169°7'0"
Elevation is 5 feet MSL.
Magnetic variation is +10° East
View others Airports in Kili

Operational data

Special qualification required
Current time UTC:
Current local time:
Weather at : - ( 0 km )
METAR: KEFD 151954Z 16007KT 10SM SCT025 33/23 A3002
View NOTAMs / SUP AIP / TFR affecting this airport [VIEW]
Communications frequencies: [VIEW]

Runways:

RWY identifierQFULength (ft)Width (ft)SurfaceLDA (ft)
044400100GRAVE
224400100GRAVE

Airport contact information

Address: Kili Island Marshall Islands

Satellite view of PKC51